createdAt,value
2023-04-12T00:01:43.421Z,100132.56
2023-04-12T00:04:14.332Z,100134.53
2023-04-12T00:06:42.274Z,100132.72
2023-04-12T00:09:09.811Z,100114.91
2023-04-12T00:11:37.720Z,100109.59
2023-04-12T00:14:06.599Z,100113.91
2023-04-12T00:16:36.893Z,100109.16
2023-04-12T00:19:04.530Z,100106.50
2023-04-12T00:21:32.723Z,100104.97
2023-04-12T00:24:01.198Z,100100.53
2023-04-12T00:26:33.290Z,100094.81
2023-04-12T00:29:01.106Z,100080.44
2023-04-12T00:31:30.368Z,100087.97
2023-04-12T00:33:58.672Z,100090.50
2023-04-12T00:36:31.737Z,100085.22
2023-04-12T00:38:59.299Z,100082.41
2023-04-12T00:41:52.555Z,100077.94
2023-04-12T00:44:20.423Z,100069.16
2023-04-12T00:46:49.388Z,100056.72
2023-04-12T00:49:17.173Z,100053.72
2023-04-12T00:51:47.681Z,100050.44
2023-04-12T00:54:17.926Z,100050.22
2023-04-12T00:56:47.200Z,100053.81
2023-04-12T00:59:15.271Z,100055.59
2023-04-12T01:01:46.328Z,100048.53
2023-04-12T01:04:15.344Z,100040.56
2023-04-12T01:07:01.562Z,100034.16
2023-04-12T01:09:37.164Z,100022.88
2023-04-12T01:12:13.240Z,100030.84
2023-04-12T01:14:52.602Z,100028.56
2023-04-12T01:17:27.519Z,100011.84
2023-04-12T01:20:00.186Z,100000.56
2023-04-12T01:22:46.133Z,99997.91
2023-04-12T01:25:27.177Z,99993.03
2023-04-12T01:28:00.894Z,99992.59
2023-04-12T01:30:30.642Z,99988.44
2023-04-12T01:33:01.654Z,99982.97
2023-04-12T01:35:56.223Z,99983.41
2023-04-12T01:38:25.627Z,99971.09
2023-04-12T01:40:53.192Z,99980.75
2023-04-12T01:43:26.013Z,99982.97
2023-04-12T01:45:55.711Z,99967.91
2023-04-12T01:48:23.569Z,99965.78
2023-04-12T01:51:01.396Z,99962.19
2023-04-12T01:53:37.624Z,99955.34
2023-04-12T01:56:10.217Z,99959.25
2023-04-12T01:58:44.206Z,99950.47
2023-04-12T02:01:15.408Z,99943.50
2023-04-12T02:03:45.104Z,99943.34
2023-04-12T02:06:15.025Z,99941.41
2023-04-12T02:08:42.792Z,99940.69
2023-04-12T02:11:12.205Z,99932.47
2023-04-12T02:13:42.348Z,99937.31
2023-04-12T02:16:10.991Z,99918.56
2023-04-12T02:18:41.518Z,99914.25
2023-04-12T02:21:11.630Z,99918.75
2023-04-12T02:23:39.287Z,99901.59
2023-04-12T02:26:07.513Z,99900.28
2023-04-12T02:28:59.973Z,99889.84
2023-04-12T02:31:30.531Z,99884.78
2023-04-12T02:33:58.706Z,99873.50
2023-04-12T02:36:27.221Z,99866.22
2023-04-12T02:38:56.035Z,99855.50
2023-04-12T02:41:25.555Z,99842.66
2023-04-12T02:43:53.890Z,99845.47
2023-04-12T02:46:27.051Z,99837.94
2023-04-12T02:49:00.597Z,99823.69
2023-04-12T02:51:40.254Z,99815.91
2023-04-12T02:54:09.207Z,99811.28
2023-04-12T02:56:49.859Z,99815.19
2023-04-12T02:59:34.635Z,99810.72
2023-04-12T03:02:12.930Z,99807.25
2023-04-12T03:04:43.187Z,99800.75
2023-04-12T03:07:20.071Z,99795.16
2023-04-12T03:09:52.684Z,99787.75
2023-04-12T03:12:22.363Z,99786.25
2023-04-12T03:15:07.381Z,99785.00
2023-04-12T03:17:36.656Z,99778.66
2023-04-12T03:20:10.429Z,99760.69
2023-04-12T03:22:42.193Z,99765.56
2023-04-12T03:25:12.603Z,99744.47
2023-04-12T03:27:45.741Z,99741.81
2023-04-12T03:30:16.744Z,99734.34
2023-04-12T03:32:45.759Z,99736.66
2023-04-12T03:35:15.552Z,99730.59
2023-04-12T03:37:44.502Z,99723.03
2023-04-12T03:40:14.086Z,99722.28
2023-04-12T03:42:46.817Z,99712.75
2023-04-12T03:45:16.431Z,99696.44
2023-04-12T03:47:49.200Z,99695.78
2023-04-12T03:50:24.196Z,99691.59
2023-04-12T03:52:57.302Z,99686.28
2023-04-12T03:55:31.643Z,99684.19
2023-04-12T03:58:01.300Z,99669.84
2023-04-12T04:00:37.210Z,99665.50
2023-04-12T04:03:10.183Z,99653.25
2023-04-12T04:05:51.218Z,99641.13
2023-04-12T04:08:22.188Z,99638.94
2023-04-12T04:10:52.655Z,99622.78
2023-04-12T04:13:23.651Z,99622.03
2023-04-12T04:16:01.386Z,99617.19
2023-04-12T04:18:30.576Z,99611.81
2023-04-12T04:21:00.355Z,99619.00
2023-04-12T04:23:38.330Z,99616.06
2023-04-12T04:26:09.985Z,99604.69
2023-04-12T04:28:45.077Z,99595.69
2023-04-12T04:31:17.586Z,99597.13
2023-04-12T04:33:50.220Z,99593.84
2023-04-12T04:36:24.278Z,99588.78
2023-04-12T04:39:46.257Z,99579.44
2023-04-12T04:42:13.981Z,99580.00
2023-04-12T04:45:05.209Z,99575.00
2023-04-12T04:47:38.917Z,99569.16
2023-04-12T04:50:08.376Z,99567.28
2023-04-12T04:52:39.253Z,99566.72
2023-04-12T04:55:13.317Z,99566.50
2023-04-12T04:58:13.780Z,99559.09
2023-04-12T05:00:44.836Z,99565.22
2023-04-12T05:03:13.417Z,99560.66
2023-04-12T05:05:41.095Z,99556.06
2023-04-12T05:08:12.943Z,99542.09
2023-04-12T05:10:40.838Z,99535.91
2023-04-12T05:13:09.823Z,99527.91
2023-04-12T05:15:37.472Z,99529.00
2023-04-12T05:18:05.973Z,99519.56
2023-04-12T05:20:33.593Z,99527.72
2023-04-12T05:23:02.221Z,99519.44
2023-04-12T05:25:31.362Z,99518.25
2023-04-12T05:28:06.610Z,99508.34
2023-04-12T05:30:34.883Z,99513.94
2023-04-12T05:33:07.218Z,99501.59
2023-04-12T05:35:37.686Z,99504.53
2023-04-12T05:38:06.910Z,99498.72
2023-04-12T05:40:36.372Z,99500.91
2023-04-12T05:43:07.723Z,99502.06
2023-04-12T05:45:35.389Z,99491.66
2023-04-12T05:48:05.140Z,99482.72
2023-04-12T05:50:34.211Z,99488.00
2023-04-12T05:53:03.113Z,99476.63
2023-04-12T05:55:34.918Z,99479.97
2023-04-12T05:58:05.448Z,99486.97
2023-04-12T06:00:34.344Z,99474.28
2023-04-12T06:03:03.759Z,99471.63
2023-04-12T06:05:31.973Z,99472.16
2023-04-12T06:08:00.811Z,99475.13
2023-04-12T06:10:29.217Z,99463.97
2023-04-12T06:12:58.788Z,99452.03
2023-04-12T06:15:28.327Z,99456.44
2023-04-12T06:17:56.309Z,99443.34
2023-04-12T06:20:23.995Z,99443.50
2023-04-12T06:22:53.211Z,99440.78
2023-04-12T06:25:22.839Z,99435.50
2023-04-12T06:27:50.808Z,99427.19
2023-04-12T06:30:20.832Z,99433.03
2023-04-12T06:32:53.039Z,99424.53
2023-04-12T06:35:21.460Z,99427.78
2023-04-12T06:37:50.216Z,99408.16
2023-04-12T06:40:18.301Z,99410.97
2023-04-12T06:42:45.910Z,99403.81
2023-04-12T06:45:13.504Z,99397.66
2023-04-12T06:47:41.532Z,99390.41
2023-04-12T06:50:15.243Z,99385.75
2023-04-12T06:52:44.188Z,99384.56
2023-04-12T06:55:15.708Z,99382.75
2023-04-12T06:57:44.586Z,99380.72
2023-04-12T07:00:13.382Z,99382.28
2023-04-12T07:02:41.085Z,99368.88
2023-04-12T07:05:38.912Z,99367.22
2023-04-12T07:08:06.972Z,99364.72
2023-04-12T07:10:36.069Z,99358.97
2023-04-12T07:13:29.221Z,99355.63
2023-04-12T07:15:58.159Z,99350.19
2023-04-12T07:18:25.900Z,99341.91
2023-04-12T07:20:57.755Z,99333.69
2023-04-12T07:23:29.292Z,99328.00
2023-04-12T07:26:00.534Z,99329.91
2023-04-12T07:28:30.298Z,99330.44
2023-04-12T07:31:00.207Z,99325.63
2023-04-12T07:33:28.003Z,99321.50
2023-04-12T07:35:58.237Z,99316.56
2023-04-12T07:38:26.613Z,99313.44
2023-04-12T07:40:55.298Z,99305.78
2023-04-12T07:43:22.985Z,99305.34
2023-04-12T07:45:52.757Z,99300.19
2023-04-12T07:48:20.675Z,99298.13
2023-04-12T07:50:48.280Z,99297.44
2023-04-12T07:53:48.110Z,99292.78
2023-04-12T07:56:16.229Z,99275.72
2023-04-12T07:58:43.888Z,99277.25
2023-04-12T08:01:13.110Z,99278.53
2023-04-12T08:03:40.786Z,99278.41
2023-04-12T08:06:09.142Z,99264.44
2023-04-12T08:08:36.866Z,99261.97
2023-04-12T08:11:06.832Z,99265.16
2023-04-12T08:13:35.409Z,99260.84
2023-04-12T08:16:04.221Z,99260.22
2023-04-12T08:18:32.202Z,99252.44
2023-04-12T08:21:01.420Z,99256.25
2023-04-12T08:23:32.201Z,99239.03
2023-04-12T08:26:03.558Z,99241.84
2023-04-12T08:28:33.482Z,99235.72
2023-04-12T08:31:01.354Z,99238.88
2023-04-12T08:33:29.055Z,99239.69
2023-04-12T08:35:58.277Z,99241.69
2023-04-12T08:38:41.354Z,99245.00
2023-04-12T08:41:12.560Z,99234.53
2023-04-12T08:43:45.292Z,99239.53
2023-04-12T08:46:15.503Z,99236.38
2023-04-12T08:48:46.189Z,99242.53
2023-04-12T08:51:15.776Z,99237.88
2023-04-12T08:53:44.323Z,99243.34
2023-04-12T08:56:15.090Z,99245.50
2023-04-12T08:58:49.032Z,99236.03
2023-04-12T09:01:17.942Z,99237.22
2023-04-12T09:03:46.576Z,99226.94
2023-04-12T09:06:14.619Z,99222.78
2023-04-12T09:08:56.224Z,99221.13
2023-04-12T09:11:25.638Z,99211.84
2023-04-12T09:13:56.623Z,99203.34
2023-04-12T09:16:38.176Z,99198.56
2023-04-12T09:19:06.252Z,99196.72
2023-04-12T09:21:38.380Z,99197.88
2023-04-12T09:24:13.559Z,99198.22
2023-04-12T09:26:42.351Z,99192.88
2023-04-12T09:29:26.102Z,99190.88
2023-04-12T09:31:58.179Z,99199.00
2023-04-12T09:34:29.221Z,99192.03
2023-04-12T09:36:57.149Z,99186.91
2023-04-12T09:39:32.671Z,99190.03
2023-04-12T09:42:14.836Z,99182.75
2023-04-12T09:44:49.253Z,99177.91
2023-04-12T09:47:19.203Z,99180.06
2023-04-12T09:49:47.742Z,99181.53
2023-04-12T09:52:16.745Z,99177.72
2023-04-12T09:54:45.777Z,99178.66
2023-04-12T09:57:14.142Z,99179.66
2023-04-12T09:59:43.161Z,99174.34
2023-04-12T10:02:22.434Z,99176.03
2023-04-12T10:04:50.879Z,99177.50
2023-04-12T10:07:19.572Z,99168.03
2023-04-12T10:09:48.187Z,99174.16
2023-04-12T10:12:16.260Z,99174.97
2023-04-12T10:14:46.961Z,99165.13
2023-04-12T10:17:16.046Z,99172.16
2023-04-12T10:19:45.153Z,99165.84
2023-04-12T10:22:13.884Z,99167.16
2023-04-12T10:24:41.506Z,99163.63
2023-04-12T10:27:10.089Z,99157.75
2023-04-12T10:29:39.670Z,99163.34
2023-04-12T10:32:22.278Z,99159.50
2023-04-12T10:34:52.015Z,99159.88
2023-04-12T10:37:19.931Z,99155.44
2023-04-12T10:39:53.870Z,99153.13
2023-04-12T10:42:26.951Z,99145.91
2023-04-12T10:44:56.248Z,99143.56
2023-04-12T10:48:02.289Z,99133.84
2023-04-12T10:50:31.798Z,99119.31
2023-04-12T10:53:25.665Z,99125.53
2023-04-12T10:55:53.535Z,99125.72
2023-04-12T10:58:58.849Z,99124.56
2023-04-12T11:01:30.517Z,99129.97
2023-04-12T11:04:17.009Z,99121.81
2023-04-12T11:07:12.382Z,99129.06
2023-04-12T11:09:43.258Z,99128.72
2023-04-12T11:12:17.064Z,99123.59
2023-04-12T11:14:46.919Z,99126.16
2023-04-12T11:17:25.967Z,99125.97
2023-04-12T11:19:58.335Z,99125.97
2023-04-12T11:22:29.798Z,99117.78
2023-04-12T11:24:59.361Z,99118.97
2023-04-12T11:27:28.130Z,99121.25
2023-04-12T11:29:58.839Z,99118.78
2023-04-12T11:32:28.014Z,99115.84
2023-04-12T11:34:59.220Z,99120.16
2023-04-12T11:37:32.267Z,99116.00
2023-04-12T11:40:00.641Z,99121.34
2023-04-12T11:42:30.127Z,99113.09
2023-04-12T11:45:01.069Z,99118.88
2023-04-12T11:47:31.376Z,99128.72
2023-04-12T11:50:01.220Z,99122.75
2023-04-12T11:52:30.542Z,99124.38
2023-04-12T11:55:01.421Z,99117.94
2023-04-12T11:57:30.856Z,99124.13
2023-04-12T11:59:59.841Z,99122.63
2023-04-12T12:02:33.092Z,99120.97
2023-04-12T12:05:07.954Z,99119.78
2023-04-12T12:07:37.717Z,99121.53
2023-04-12T12:10:07.085Z,99116.91
2023-04-12T12:12:35.254Z,99112.22
2023-04-12T12:15:03.292Z,99106.69
2023-04-12T12:17:32.302Z,99116.53
2023-04-12T12:20:01.451Z,99118.81
2023-04-12T12:22:31.406Z,99123.50
2023-04-12T12:25:05.203Z,99124.47
2023-04-12T12:27:36.537Z,99120.78
2023-04-12T12:30:07.565Z,99128.53
2023-04-12T12:32:37.027Z,99146.63
2023-04-12T12:35:10.234Z,99139.25
2023-04-12T12:37:48.833Z,99153.56
2023-04-12T12:40:16.784Z,99156.03
2023-04-12T12:42:49.735Z,99155.34
2023-04-12T12:45:20.057Z,99154.94
2023-04-12T12:47:52.744Z,99155.22
2023-04-12T12:53:17.739Z,99146.44
2023-04-12T12:55:45.496Z,99139.84
2023-04-12T12:58:13.070Z,99137.81
2023-04-12T13:00:41.451Z,99136.28
2023-04-12T13:03:09.431Z,99124.09
2023-04-12T13:05:37.137Z,99122.84
2023-04-12T13:08:06.085Z,99120.00
2023-04-12T13:10:34.980Z,99112.75
2023-04-12T13:13:03.844Z,99116.72
2023-04-12T13:15:32.266Z,99110.56
2023-04-12T13:18:00.264Z,99111.03
2023-04-12T13:20:28.422Z,99107.66
2023-04-12T13:22:58.289Z,99105.38
2023-04-12T13:25:26.077Z,99105.09
2023-04-12T13:27:54.996Z,99100.78
2023-04-12T13:30:24.215Z,99090.84
2023-04-12T13:32:51.885Z,99096.72
2023-04-12T13:35:19.536Z,99095.28
2023-04-12T13:37:47.078Z,99091.84
2023-04-12T13:40:15.214Z,99083.78
2023-04-12T13:42:44.661Z,99079.56
2023-04-12T13:45:13.794Z,99077.81
2023-04-12T13:47:41.758Z,99071.75
2023-04-12T13:50:12.724Z,99066.06
2023-04-12T13:52:40.388Z,99067.59
2023-04-12T13:55:09.449Z,99062.78
2023-04-12T13:57:37.046Z,99059.59
2023-04-12T14:00:06.406Z,99059.91
2023-04-12T14:02:35.407Z,99059.56
2023-04-12T14:05:04.205Z,99054.47
2023-04-12T14:07:57.564Z,99061.13
2023-04-12T14:10:26.365Z,99057.28
2023-04-12T14:12:54.646Z,99068.69
2023-04-12T14:15:22.322Z,99062.56
2023-04-12T14:17:51.763Z,99072.25
2023-04-12T14:20:20.516Z,99071.66
2023-04-12T14:22:48.107Z,99079.47
2023-04-12T14:25:15.822Z,99071.22
2023-04-12T14:27:43.410Z,99071.22
2023-04-12T14:30:11.260Z,99069.72
2023-04-12T14:32:39.818Z,99070.78
2023-04-12T14:35:09.597Z,99070.94
2023-04-12T14:37:37.152Z,99076.72
2023-04-12T14:40:08.262Z,99078.38
2023-04-12T14:42:35.904Z,99076.97
2023-04-12T14:45:05.244Z,99078.63
2023-04-12T14:47:36.805Z,99088.72
2023-04-12T14:50:05.356Z,99084.41
2023-04-12T14:52:35.233Z,99087.94
2023-04-12T14:55:03.905Z,99093.91
2023-04-12T14:57:32.692Z,99088.34
2023-04-12T15:00:02.207Z,99086.88
2023-04-12T15:02:30.021Z,99101.06
2023-04-12T15:04:58.976Z,99115.03
2023-04-12T15:07:27.782Z,99131.38
2023-04-12T15:09:58.521Z,99138.41
2023-04-12T15:12:28.824Z,99145.09
2023-04-12T15:14:57.493Z,99163.19
2023-04-12T15:17:27.106Z,99162.84
2023-04-12T15:19:57.657Z,99175.41
2023-04-12T15:22:27.627Z,99182.53
2023-04-12T15:24:57.675Z,99178.38
2023-04-12T15:27:50.713Z,99199.75
2023-04-12T15:30:18.380Z,99208.69
2023-04-12T15:32:46.265Z,99206.38
2023-04-12T15:35:26.069Z,99212.75
2023-04-12T15:37:55.381Z,99220.25
2023-04-12T15:40:25.395Z,99222.38
2023-04-12T15:42:57.332Z,99233.13
2023-04-12T15:45:25.154Z,99226.44
2023-04-12T15:47:55.094Z,99232.97
2023-04-12T15:53:16.811Z,99235.25
2023-04-12T15:55:47.023Z,99226.16
2023-04-12T15:58:15.363Z,99226.34
2023-04-12T16:01:08.484Z,99234.16
2023-04-12T16:03:37.130Z,99235.38
2023-04-12T16:06:05.166Z,99252.28
2023-04-12T16:08:34.381Z,99241.38
2023-04-12T16:11:04.052Z,99250.47
2023-04-12T16:13:32.344Z,99253.47
2023-04-12T16:15:59.974Z,99255.28
2023-04-12T16:18:30.772Z,99247.00
2023-04-12T16:20:58.654Z,99257.94
2023-04-12T16:23:28.523Z,99259.94
2023-04-12T16:25:56.830Z,99260.13
2023-04-12T16:35:24.645Z,99267.75
2023-04-12T16:37:57.822Z,99269.88
2023-04-12T16:40:29.198Z,99268.88
2023-04-12T16:46:16.401Z,99265.59
2023-04-12T16:48:55.540Z,99265.75
2023-04-12T16:51:36.766Z,99267.75
2023-04-12T16:57:49.647Z,99265.59
2023-04-12T17:04:01.187Z,99262.28
2023-04-12T17:10:11.726Z,99270.56
2023-04-12T17:16:23.602Z,99279.19
2023-04-12T17:18:51.619Z,99280.50
2023-04-12T17:21:54.904Z,99288.16
2023-04-12T17:24:28.959Z,99291.63
2023-04-12T17:27:23.635Z,99306.06
2023-04-12T17:29:52.800Z,99309.22
2023-04-12T17:32:20.821Z,99304.41
2023-04-12T17:34:54.619Z,99299.91
2023-04-12T17:37:24.242Z,99307.88
2023-04-12T17:39:52.180Z,99304.75
2023-04-12T17:42:20.710Z,99290.13
2023-04-12T17:44:48.465Z,99293.91
2023-04-12T17:47:17.400Z,99289.78
2023-04-12T17:49:47.341Z,99293.44
2023-04-12T17:52:17.779Z,99290.44
2023-04-12T17:54:46.981Z,99295.25
2023-04-12T17:57:14.584Z,99289.25
2023-04-12T17:59:42.228Z,99280.66
2023-04-12T18:02:10.268Z,99272.50
2023-04-12T18:04:38.492Z,99264.03
2023-04-12T18:07:09.492Z,99258.56
2023-04-12T18:09:38.170Z,99261.34
2023-04-12T18:12:07.386Z,99281.22
2023-04-12T18:14:35.404Z,99277.41
2023-04-12T18:17:03.379Z,99276.06
2023-04-12T18:19:31.027Z,99276.53
2023-04-12T18:22:00.194Z,99278.81
2023-04-12T18:24:27.999Z,99285.59
2023-04-12T18:26:57.267Z,99286.09
2023-04-12T18:29:27.276Z,99277.91
2023-04-12T18:31:54.893Z,99278.56
2023-04-12T18:34:23.249Z,99281.69
2023-04-12T18:36:52.712Z,99294.69
2023-04-12T18:39:21.373Z,99301.59
2023-04-12T18:41:48.950Z,99302.22
2023-04-12T18:44:19.130Z,99306.50
2023-04-12T18:46:48.126Z,99315.06
2023-04-12T18:49:16.068Z,99302.91
2023-04-12T18:51:43.756Z,99303.84
2023-04-12T18:54:13.700Z,99301.00
2023-04-12T18:56:42.506Z,99296.44
2023-04-12T18:59:15.744Z,99312.09
2023-04-12T19:01:43.576Z,99313.69
2023-04-12T19:04:12.902Z,99312.50
2023-04-12T19:06:40.737Z,99319.81
2023-04-12T19:09:09.157Z,99313.75
2023-04-12T19:11:37.227Z,99312.84
2023-04-12T19:14:05.416Z,99317.75
2023-04-12T19:16:33.956Z,99318.34
2023-04-12T19:19:01.780Z,99322.28
2023-04-12T19:21:30.989Z,99334.59
2023-04-12T19:24:00.515Z,99340.53
2023-04-12T19:26:30.258Z,99339.38
2023-04-12T19:28:58.786Z,99338.88
2023-04-12T19:31:26.969Z,99339.75
2023-04-12T19:33:55.306Z,99347.97
2023-04-12T19:36:24.389Z,99356.34
2023-04-12T19:38:53.368Z,99337.97
2023-04-12T19:41:20.961Z,99336.06
2023-04-12T19:43:48.731Z,99338.03
2023-04-12T19:46:17.269Z,99337.31
2023-04-12T19:48:46.311Z,99340.09
2023-04-12T19:51:15.267Z,99337.47
2023-04-12T19:53:43.231Z,99338.03
2023-04-12T19:56:14.943Z,99343.44
2023-04-12T19:58:44.316Z,99350.41
2023-04-12T20:01:13.518Z,99347.53
2023-04-12T20:03:44.473Z,99335.56
2023-04-12T20:06:12.094Z,99341.84
2023-04-12T20:08:39.894Z,99348.50
2023-04-12T20:11:07.839Z,99340.59
2023-04-12T20:13:37.108Z,99342.66
2023-04-12T20:16:04.839Z,99336.81
2023-04-12T20:18:32.617Z,99331.13
2023-04-12T20:21:00.224Z,99332.38
2023-04-12T20:23:29.076Z,99326.72
2023-04-12T20:25:57.393Z,99325.16
2023-04-12T20:28:25.684Z,99329.03
2023-04-12T20:30:54.624Z,99328.22
2023-04-12T20:33:22.333Z,99328.63
2023-04-12T20:35:52.276Z,99321.03
2023-04-12T20:38:20.255Z,99321.84
2023-04-12T20:40:48.941Z,99314.91
2023-04-12T20:43:16.496Z,99310.88
2023-04-12T20:45:46.932Z,99306.84
2023-04-12T20:48:15.880Z,99312.44
2023-04-12T20:50:44.360Z,99312.28
2023-04-12T20:53:14.997Z,99308.25
2023-04-12T20:55:44.160Z,99301.56
2023-04-12T20:58:12.984Z,99308.78
2023-04-12T21:00:40.691Z,99303.09
2023-04-12T21:03:08.543Z,99311.00
2023-04-12T21:05:38.587Z,99304.38
2023-04-12T21:08:07.398Z,99308.09
2023-04-12T21:10:35.013Z,99305.59
2023-04-12T21:13:03.056Z,99306.75
2023-04-12T21:15:35.188Z,99300.75
2023-04-12T21:18:04.151Z,99304.38
2023-04-12T21:20:32.103Z,99307.69
2023-04-12T21:23:03.763Z,99297.56
2023-04-12T21:25:32.288Z,99303.84
2023-04-12T21:28:01.376Z,99297.16
2023-04-12T21:30:28.970Z,99288.41
2023-04-12T21:32:56.756Z,99297.56
2023-04-12T21:35:25.251Z,99307.97
2023-04-12T21:37:53.426Z,99287.16
2023-04-12T21:40:22.951Z,99300.50
2023-04-12T21:42:51.377Z,99296.19
2023-04-12T21:45:19.462Z,99287.44
2023-04-12T21:47:47.171Z,99296.47
2023-04-12T21:50:15.774Z,99295.50
2023-04-12T21:52:45.340Z,99304.22
2023-04-12T21:55:14.429Z,99301.44
2023-04-12T21:57:43.978Z,99297.44
2023-04-12T22:00:12.695Z,99288.13
2023-04-12T22:02:40.406Z,99290.78
2023-04-12T22:05:08.676Z,99297.03
2023-04-12T22:07:40.718Z,99290.09
2023-04-12T22:10:11.803Z,99284.66
2023-04-12T22:12:40.005Z,99282.19
2023-04-12T22:15:11.547Z,99274.53
2023-04-12T22:17:39.474Z,99271.34
2023-04-12T22:20:08.544Z,99261.91
2023-04-12T22:22:37.260Z,99256.06
2023-04-12T22:25:11.263Z,99252.88
2023-04-12T22:27:39.173Z,99239.44
2023-04-12T22:30:11.434Z,99241.09
2023-04-12T22:32:39.070Z,99237.31
2023-04-12T22:35:09.084Z,99245.13
2023-04-12T22:37:37.631Z,99257.84
2023-04-12T22:40:06.619Z,99263.69
2023-04-12T22:42:36.858Z,99262.31
2023-04-12T22:45:06.303Z,99266.59
2023-04-12T22:47:35.587Z,99266.59
2023-04-12T22:50:08.283Z,99267.00
2023-04-12T22:52:37.837Z,99268.97
2023-04-12T22:55:07.466Z,99270.91
2023-04-12T22:57:36.117Z,99269.66
2023-04-12T23:00:06.312Z,99268.66
2023-04-12T23:02:36.228Z,99274.66
2023-04-12T23:05:07.271Z,99268.00
2023-04-12T23:07:35.411Z,99258.28
2023-04-12T23:10:07.253Z,99254.91
2023-04-12T23:12:38.940Z,99248.69
2023-04-12T23:15:07.545Z,99239.63
2023-04-12T23:17:37.570Z,99242.84
2023-04-12T23:20:11.249Z,99237.69
2023-04-12T23:22:56.557Z,99249.34
2023-04-12T23:25:29.131Z,99252.53
2023-04-12T23:27:57.325Z,99230.44
2023-04-12T23:30:29.461Z,99235.72
2023-04-12T23:33:00.394Z,99220.41
2023-04-12T23:35:29.238Z,99226.31
2023-04-12T23:37:57.279Z,99222.28
2023-04-12T23:40:25.656Z,99219.63
2023-04-12T23:42:53.259Z,99210.00
2023-04-12T23:45:24.273Z,99206.91
2023-04-12T23:47:52.394Z,99206.00
2023-04-12T23:50:21.611Z,99198.34
2023-04-12T23:52:49.799Z,99206.97
2023-04-12T23:55:19.727Z,99192.78
2023-04-12T23:57:47.514Z,99189.59
